Terminal Aerodrome Forecast
Issued by NWS

Home | Current Version | Previous Version | Text Only | Print | Product List | Glossary On
Versions: 1 2 3 4 5 6 7 8 9 10 11 12 13 14 15
000
FTUS43 KLSX 142000 AAB
TAFUIN
TAF AMD
KUIN 142057Z 1421/1518 33015KT 3SM -SN BR SCT008 OVC015
     FM142200 33017G27KT P6SM OVC018
     FM150100 34015KT P6SM BKN035
     FM150600 32007KT P6SM SKC=

USA.gov is the U.S. government's official web portal to all federal, state and local government web resources and services.